Latest Coastal Weather Observations for Port Augusta

IDS60701

Issued at 10:35 am CST Thursday 17 April 2014 (issued every 10 minutes, with the page automatically refreshed every 10 minutes)

About coastal observations | Map of coastal stations | Coastal observations for SA | Marine services | Other Formats
Station Details ID: 018201 Name: PORT AUGUSTA AERO Lat: -32.51 Lon: 137.72 Height: 13.97 m
Data from the previous 72 hours. | See also: Recent months at Port Augusta
Date/Time
CST
Temp

°C
Wind Pressure Rain
since 9am
mm
Weather Cloud Vis
km
Sea
Height
m
Swell
Dir
 
Speed
knots
Gust
knots
hPa Trend Height
m
Period
s
Dir
17/10:30am 21.6 NNW 6 9 1022.0 - 0.0 - - - - - - -
17/10:00am 21.0 N 5 8 1022.0 - 0.0 - - - - - - -
17/09:30am 19.8 ESE 3 4 1022.1 - 0.0 - - - - - - -
17/09:00am 18.7 NE 3 4 1022.1 - 0.0 - - - - - - -
17/08:30am 17.1 NW 3 4 1021.9 - 0.0 - - - - - - -
17/08:00am 14.8 CALM 0 0 1021.8 - 0.0 - - - - - - -
17/07:30am 12.5 W 3 4 1021.3 - 0.0 - - - - - - -
17/07:00am 11.2 W 3 4 1020.9 - 0.0 - - - - - - -
17/06:30am 10.7 W 4 5 1020.6 - 0.0 - - - - - - -
17/06:00am 10.9 W 4 5 1020.5 - 0.0 - - - - - - -
17/05:30am 11.4 CALM 0 0 1020.3 - 0.0 - - - - - - -
17/05:00am 11.6 CALM 0 0 1020.1 - 0.0 - - - - - - -
17/04:30am 11.6 CALM 0 0 1020.0 - 0.0 - - - - - - -
17/04:00am 12.1 CALM 0 0 1019.9 - 0.0 - - - - - - -
17/03:30am 12.5 S 2 4 1019.8 - 0.0 - - - - - - -
17/03:00am 14.8 SSE 5 6 1019.8 - 0.0 - - - - - - -
17/02:30am 13.0 N 1 3 1019.9 - 0.0 - - - - - - -
17/02:00am 13.4 ENE 3 6 1020.1 - 0.0 - - - - - - -
17/01:30am 13.4 E 6 7 1020.1 - 0.0 - - - - - - -
17/01:00am 14.2 E 4 5 1020.1 - 0.0 - - - - - - -
17/12:30am 14.6 SSE 3 4 1020.2 - 0.0 - - - - - - -
17/12:00am 14.5 W 1 4 1020.4 - 0.0 - - - - - - -
 
Date/Time
CST
Temp

°C
Wind Pressure Rain
since 9am
mm
Weather Cloud Vis
km
Sea
Height
m
Swell
Dir
 
Speed
knots
Gust
knots
hPa Trend Height
m
Period
s
Dir
16/11:30pm 14.8 SW 2 4 1020.4 - 0.0 - - - - - - -
16/11:00pm 14.1 SW 5 6 1020.5 - 0.0 - - - - - - -
16/10:30pm 14.5 SW 4 4 1020.3 - 0.0 - - - - - - -
16/10:00pm 16.0 SE 3 3 1020.3 - 0.0 - - - - - - -
16/09:30pm 16.0 SE 4 5 1020.1 - 0.0 - - - - - - -
16/09:00pm 17.7 SE 6 8 1019.9 - 0.0 - - - - - - -
16/08:30pm 16.5 SE 3 4 1019.8 - 0.0 - - - - - - -
16/08:00pm 17.7 ESE 3 4 1019.5 - 0.0 - - - - - - -
16/07:30pm 17.9 ESE 5 6 1019.3 - 0.0 - - - - - - -
16/07:00pm 20.5 SE 6 7 1019.2 - 0.0 - - - - - - -
16/06:30pm 21.0 SE 7 9 1018.8 - 0.0 - - - - - - -
16/06:00pm 21.8 SE 5 8 1018.7 - 0.0 - - - - - - -
16/05:30pm 24.9 W 2 4 1018.7 - 0.0 - - - - - - -
16/05:00pm 24.9 WSW 5 7 1018.7 - 0.0 - - - - - - -
16/04:30pm 25.2 WSW 8 11 1018.6 - 0.0 - - - - - - -
16/04:00pm 25.2 SW 8 11 1018.4 - 0.0 - - - - - - -
16/03:30pm 25.3 WSW 9 13 1018.4 - 0.0 - - - - - - -
16/03:00pm 25.9 WNW 5 9 1018.4 - 0.0 - - - - - - -
16/02:30pm 25.3 W 9 12 1018.7 - 0.0 - - - - - - -
16/02:00pm 25.2 W 10 14 1018.7 - 0.0 - - - - - - -
16/01:30pm 24.8 W 6 9 1019.0 - 0.0 - - - - - - -
16/01:00pm 24.4 W 8 13 1019.5 - 0.0 - - - - - - -
16/12:30pm 24.0 W 7 12 1020.2 - 0.0 - - - - - - -
16/12:00pm 23.4 WNW 8 13 1020.7 - 0.0 - - - - - - -
16/11:30am 23.4 NW 8 11 1021.1 - 0.0 - - - - - - -
16/11:00am 22.1 N 8 10 1020.9 - 0.0 - - - - - - -
16/10:30am 20.8 N 6 8 1021.3 - 0.0 - - - - - - -
16/10:00am 20.3 NNW 6 7 1021.4 - 0.0 - - - - - - -
16/09:30am 19.5 NNW 3 5 1021.4 - 0.0 - - - - - - -
16/09:00am 17.6 W 1 3 1021.6 - 0.0 - - - - - - -
16/08:30am 15.3 W 1 4 1021.6 - 0.0 - - - - - - -
16/08:00am 13.9 CALM 0 0 1021.3 - 0.0 - - - - - - -
16/07:30am 12.2 CALM 0 1 1021.1 - 0.0 - - - - - - -
16/07:00am 11.1 W 3 4 1020.9 - 0.0 - - - - - - -
16/06:30am 10.8 W 4 5 1020.4 - 0.0 - - - - - - -
16/06:00am 10.9 W 4 5 1020.5 - 0.0 - - - - - - -
16/05:30am 11.5 CALM 0 0 1020.3 - 0.0 - - - - - - -
16/05:00am 12.9 CALM 0 0 1020.1 - 0.0 - - - - - - -
16/04:30am 12.5 CALM 0 3 1020.3 - 0.0 - - - - - - -
16/04:00am 12.5 ESE 3 4 1020.3 - 0.0 - - - - - - -
16/03:30am 11.8 SSW 5 5 1020.2 - 0.0 - - - - - - -
16/03:00am 12.0 S 3 4 1020.0 - 0.0 - - - - - - -
16/02:30am 12.2 SW 4 5 1020.0 - 0.0 - - - - - - -
16/02:00am 12.6 SW 4 5 1020.3 - 0.0 - - - - - - -
16/01:30am 12.8 WSW 4 5 1020.4 - 0.0 - - - - - - -
16/01:00am 13.4 W 3 5 1020.5 - 0.0 - - - - - - -
16/12:30am 14.1 S 6 7 1020.5 - 0.0 - - - - - - -
16/12:00am 14.4 ESE 6 7 1020.6 - 0.0 - - - - - - -
 
Date/Time
CST
Temp

°C
Wind Pressure Rain
since 9am
mm
Weather Cloud Vis
km
Sea
Height
m
Swell
Dir
 
Speed
knots
Gust
knots
hPa Trend Height
m
Period
s
Dir
15/11:30pm 14.3 NE 5 6 1020.6 - 0.0 - - - - - - -
15/11:00pm 16.6 SE 5 7 1021.1 - 0.0 - - - - - - -
15/10:30pm 16.6 SSW 7 8 1021.5 - 0.0 - - - - - - -
15/10:00pm 18.3 SSE 8 12 1021.4 - 0.0 - - - - - - -
15/09:30pm 17.1 WSW 5 7 1021.4 - 0.0 - - - - - - -
15/09:00pm 18.0 SSE 7 11 1021.1 - 0.0 - - - - - - -
15/08:30pm 18.3 SSE 11 16 1021.0 - 0.0 - - - - - - -
15/08:00pm 18.4 SSE 12 16 1020.8 - 0.0 - - - - - - -
15/07:30pm 18.6 SE 13 16 1020.4 - 0.0 - - - - - - -
15/07:00pm 18.8 SE 9 12 1020.2 - 0.0 - - - - - - -
15/06:30pm 18.9 ESE 8 9 1019.9 - 0.0 - - - - - - -
15/06:00pm 20.2 SE 6 8 1019.9 - 0.0 - - - - - - -
15/05:30pm 21.6 SE 7 10 1019.7 - 0.0 - - - - - - -
15/05:00pm 22.9 SE 7 9 1019.5 - 0.0 - - - - - - -
15/04:30pm 23.4 ESE 6 8 1019.5 - 0.0 - - - - - - -
15/04:00pm 23.5 ESE 6 8 1019.7 - 0.0 - - - - - - -
15/03:30pm 23.7 E 4 7 1019.6 - 0.0 - - - - - - -
15/03:00pm 23.5 SSE 5 8 1019.7 - 0.0 - - - - - - -
15/02:30pm 23.6 S 5 8 1019.7 - 0.0 - - - - - - -
15/02:00pm 23.1 SSE 4 9 1019.8 - 0.0 - - - - - - -
15/01:30pm 23.4 SW 5 9 1020.1 - 0.0 - - - - - - -
15/01:00pm 22.8 SSE 6 12 1020.5 - 0.0 - - - - - - -
15/12:30pm 22.6 SSE 7 13 1020.9 - 0.0 - - - - - - -
15/12:00pm 22.4 ESE 7 9 1021.5 - 0.0 - - - - - - -
15/11:30am 21.7 SE 6 9 1021.9 - 0.0 - - - - - - -
15/11:00am 20.9 SE 7 9 1022.1 - 0.0 - - - - - - -
15/10:30am 20.0 SE 8 9 1022.3 - 0.0 - - - - - - -
15/10:00am 19.4 SE 9 11 1022.4 - 0.0 - - - - - - -
15/09:30am 18.6 SE 8 12 1022.5 - 0.0 - - - - - - -
15/09:00am 18.2 SE 8 10 1022.5 - 0.0 - - - - - - -
15/08:30am 16.5 S 3 4 1022.6 - 0.0 - - - - - - -
15/08:00am 15.1 SW 6 7 1022.6 - 0.0 - - - - - - -
15/07:30am 13.7 SW 7 8 1022.3 - 0.0 - - - - - - -
15/07:00am 12.6 SW 9 10 1021.9 - 0.0 - - - - - - -
15/06:30am 12.0 SW 7 9 1021.8 - 0.0 - - - - - - -
15/06:00am 12.3 SW 6 7 1021.6 - 0.0 - - - - - - -
15/05:30am 13.4 SSW 6 10 1021.4 - 0.0 - - - - - - -
15/05:00am 13.5 S 5 9 1021.3 - 0.0 - - - - - - -
15/04:30am 14.0 S 7 8 1021.2 - 0.0 - - - - - - -
15/04:00am 14.5 S 7 10 1021.3 - 0.0 - - - - - - -
15/03:30am 14.9 SSW 7 9 1021.1 - 0.0 - - - - - - -
15/03:00am 14.9 S 7 10 1021.0 - 0.0 - - - - - - -
15/02:30am 15.2 S 8 11 1021.0 - 0.0 - - - - - - -
15/02:00am 15.4 SE 3 4 1021.2 - 0.0 - - - - - - -
15/01:30am 16.1 S 5 7 1021.5 - 0.0 - - - - - - -
15/01:00am 16.5 SW 5 10 1021.4 - 0.0 - - - - - - -
15/12:30am 15.0 W 5 6 1021.3 - 0.0 - - - - - - -
15/12:00am 16.9 SSW 6 10 1021.2 - 0.0 - - - - - - -
 
Date/Time
CST
Temp

°C
Wind Pressure Rain
since 9am
mm
Weather Cloud Vis
km
Sea
Height
m
Swell
Dir
 
Speed
knots
Gust
knots
hPa Trend Height
m
Period
s
Dir
14/11:30pm 16.9 SSE 9 11 1021.4 - 0.0 - - - - - - -
14/11:00pm 17.2 SSE 11 13 1021.5 - 0.0 - - - - - - -
14/10:30pm 17.5 SSE 12 16 1021.6 - 0.0 - - - - - - -
14/10:00pm 17.5 SSE 12 15 1021.6 - 0.0 - - - - - - -
14/09:30pm 17.6 SSE 13 18 1021.5 - 0.0 - - - - - - -
14/09:00pm 17.9 SSE 15 20 1021.4 - 0.0 - - - - - - -
14/08:30pm 18.4 SSE 17 21 1021.0 - 0.0 - - - - - - -
14/08:00pm 18.9 SSE 17 22 1020.9 - 0.0 - - - - - - -
14/07:30pm 19.5 S 19 24 1020.7 - 0.0 - - - - - - -
14/07:00pm 19.8 S 17 23 1020.5 - 0.0 - - - - - - -
14/06:30pm 19.6 S 16 21 1020.2 - 0.0 - - - - - - -
14/06:00pm 20.2 S 12 16 1019.9 - 0.0 - - - - - - -
14/05:30pm 21.3 S 11 15 1019.6 - 0.0 - - - - - - -
14/05:00pm 22.0 SSE 12 17 1019.3 - 0.0 - - - - - - -
14/04:30pm 22.6 SSE 13 17 1019.1 - 0.0 - - - - - - -
14/04:00pm 22.6 SE 11 16 1019.0 - 0.0 - - - - - - -
14/03:30pm 22.9 SSE 12 16 1019.0 - 0.0 - - - - - - -
14/03:00pm 23.0 SSE 12 17 1019.0 - 0.0 - - - - - - -
14/02:30pm 22.8 SSE 11 14 1019.1 - 0.0 - - - - - - -
14/02:00pm 22.6 SSE 8 12 1019.1 - 0.0 - - - - - - -
14/01:30pm 22.5 SE 10 15 1019.2 - 0.0 - - - - - - -
14/01:00pm 22.2 SE 10 12 1019.7 - 0.0 - - - - - - -
14/12:30pm 21.8 SE 9 14 1020.2 - 0.0 - - - - - - -
14/12:00pm 21.3 SSE 10 14 1020.8 - 0.0 - - - - - - -
14/11:30am 20.6 SE 10 15 1021.2 - 0.0 - - - - - - -
14/11:00am 20.2 SE 10 14 1021.6 - 0.0 - - - - - - -

Other Formats:

Comma delimited format used in spreadsheet applications
http://www.bom.gov.au/fwo/IDS60701/IDS60701.95666.axf

JavaScript Object Notation format (JSON) in row-major order
http://www.bom.gov.au/fwo/IDS60701/IDS60701.95666.json